Weather at Big Springs Ranch Airport

Public forecast

Using degrees Fahrenheit for public forecast. Weather courtesy of forecast.io.

Closest aviation weather report (METAR) to Big Springs Ranch Airport

Closest report is Prescott International Airport - Ernest A. Love Field, 16.3 nm (30.2 km) SSE. Retrieved 2021/06/25 02:53 UTC (16 minutes ago):

KPRC 250253Z 17004KT 10SM CLR 19/13 A3011 RMK AO2 SLP123 60035 T01940133 50000

Closest aviation forecast (TAF) to Big Springs Ranch Airport

Closest forecast is Prescott International Airport - Ernest A. Love Field, 16.3 nm (30.2 km) SSE. Retrieved 2021-06-25 00:24 UTC (3 hours ago):

TAF KPRC 242321Z 2500/2524 12009G15KT P6SM VCTS FEW090CB SCT250 FM250200 28007KT P6SM FEW090 SCT250 FM251800 26009G15KT P6SM FEW100 FEW250